sensor_id;sensor_type;location;lat;lon;timestamp;P1;durP1;ratioP1;P2;durP2;ratioP2
10517;SDS011;5307;42.548;22.968;2023-08-07T00:00:36;1.15;;;0.98;;
10517;SDS011;5307;42.548;22.968;2023-08-07T00:03:03;3.42;;;1.20;;
10517;SDS011;5307;42.548;22.968;2023-08-07T00:05:30;3.78;;;1.17;;
10517;SDS011;5307;42.548;22.968;2023-08-07T00:07:56;1.50;;;1.20;;
10517;SDS011;5307;42.548;22.968;2023-08-07T00:10:25;1.10;;;1.00;;
10517;SDS011;5307;42.548;22.968;2023-08-07T00:12:51;1.27;;;1.17;;
10517;SDS011;5307;42.548;22.968;2023-08-07T00:15:18;3.33;;;1.50;;
10517;SDS011;5307;42.548;22.968;2023-08-07T00:17:45;1.70;;;1.20;;
10517;SDS011;5307;42.548;22.968;2023-08-07T00:20:12;1.40;;;1.30;;
10517;SDS011;5307;42.548;22.968;2023-08-07T00:22:39;2.53;;;1.10;;
10517;SDS011;5307;42.548;22.968;2023-08-07T00:25:06;1.25;;;1.15;;
10517;SDS011;5307;42.548;22.968;2023-08-07T00:27:34;1.35;;;1.20;;
10517;SDS011;5307;42.548;22.968;2023-08-07T00:30:01;1.23;;;1.13;;
10517;SDS011;5307;42.548;22.968;2023-08-07T00:32:28;3.17;;;1.10;;
10517;SDS011;5307;42.548;22.968;2023-08-07T00:34:55;1.60;;;1.38;;
10517;SDS011;5307;42.548;22.968;2023-08-07T00:37:21;1.20;;;1.15;;
10517;SDS011;5307;42.548;22.968;2023-08-07T00:39:48;3.00;;;1.50;;
10517;SDS011;5307;42.548;22.968;2023-08-07T00:42:15;2.67;;;1.23;;
10517;SDS011;5307;42.548;22.968;2023-08-07T00:44:43;2.03;;;1.60;;
10517;SDS011;5307;42.548;22.968;2023-08-07T00:47:10;1.23;;;1.10;;
10517;SDS011;5307;42.548;22.968;2023-08-07T00:49:37;1.40;;;1.30;;
10517;SDS011;5307;42.548;22.968;2023-08-07T00:52:05;1.50;;;1.40;;
10517;SDS011;5307;42.548;22.968;2023-08-07T00:54:32;1.40;;;1.30;;
10517;SDS011;5307;42.548;22.968;2023-08-07T00:57:00;2.00;;;1.40;;
10517;SDS011;5307;42.548;22.968;2023-08-07T00:59:33;1.50;;;1.40;;
10517;SDS011;5307;42.548;22.968;2023-08-07T01:02:01;2.17;;;1.48;;
10517;SDS011;5307;42.548;22.968;2023-08-07T01:04:29;1.48;;;1.38;;
10517;SDS011;5307;42.548;22.968;2023-08-07T01:06:56;2.15;;;1.40;;
10517;SDS011;5307;42.548;22.968;2023-08-07T01:09:23;1.50;;;1.40;;
10517;SDS011;5307;42.548;22.968;2023-08-07T01:11:53;1.73;;;1.50;;
10517;SDS011;5307;42.548;22.968;2023-08-07T01:14:25;1.45;;;1.35;;
10517;SDS011;5307;42.548;22.968;2023-08-07T01:17:02;6.20;;;1.52;;
10517;SDS011;5307;42.548;22.968;2023-08-07T01:19:32;1.55;;;1.45;;
10517;SDS011;5307;42.548;22.968;2023-08-07T01:22:06;1.35;;;1.27;;
10517;SDS011;5307;42.548;22.968;2023-08-07T01:24:33;5.18;;;1.52;;
10517;SDS011;5307;42.548;22.968;2023-08-07T01:27:03;1.70;;;1.60;;
10517;SDS011;5307;42.548;22.968;2023-08-07T01:29:40;3.20;;;1.70;;
10517;SDS011;5307;42.548;22.968;2023-08-07T01:32:16;2.00;;;1.55;;
10517;SDS011;5307;42.548;22.968;2023-08-07T01:34:48;4.65;;;1.90;;
10517;SDS011;5307;42.548;22.968;2023-08-07T01:37:19;2.10;;;1.90;;
10517;SDS011;5307;42.548;22.968;2023-08-07T01:39:48;1.88;;;1.60;;
10517;SDS011;5307;42.548;22.968;2023-08-07T01:42:16;1.67;;;1.58;;
10517;SDS011;5307;42.548;22.968;2023-08-07T01:44:44;3.30;;;1.58;;
10517;SDS011;5307;42.548;22.968;2023-08-07T01:47:11;1.92;;;1.70;;
10517;SDS011;5307;42.548;22.968;2023-08-07T01:49:37;1.88;;;1.77;;
10517;SDS011;5307;42.548;22.968;2023-08-07T01:52:06;4.72;;;1.83;;
10517;SDS011;5307;42.548;22.968;2023-08-07T01:54:35;4.50;;;1.60;;
10517;SDS011;5307;42.548;22.968;2023-08-07T01:57:02;1.65;;;1.55;;
10517;SDS011;5307;42.548;22.968;2023-08-07T01:59:29;2.97;;;1.70;;
10517;SDS011;5307;42.548;22.968;2023-08-07T02:01:56;4.13;;;1.75;;
10517;SDS011;5307;42.548;22.968;2023-08-07T02:04:23;3.55;;;1.95;;
10517;SDS011;5307;42.548;22.968;2023-08-07T02:06:50;2.60;;;2.00;;
10517;SDS011;5307;42.548;22.968;2023-08-07T02:09:16;4.90;;;1.98;;
10517;SDS011;5307;42.548;22.968;2023-08-07T02:11:44;2.95;;;1.77;;
10517;SDS011;5307;42.548;22.968;2023-08-07T02:14:11;2.72;;;1.80;;
10517;SDS011;5307;42.548;22.968;2023-08-07T02:16:38;2.50;;;2.17;;
10517;SDS011;5307;42.548;22.968;2023-08-07T02:19:05;2.17;;;1.98;;
10517;SDS011;5307;42.548;22.968;2023-08-07T02:21:32;2.58;;;2.05;;
10517;SDS011;5307;42.548;22.968;2023-08-07T02:23:59;2.28;;;2.08;;
10517;SDS011;5307;42.548;22.968;2023-08-07T02:26:29;2.30;;;2.10;;
10517;SDS011;5307;42.548;22.968;2023-08-07T02:28:57;2.35;;;2.15;;
10517;SDS011;5307;42.548;22.968;2023-08-07T02:31:23;2.42;;;2.08;;
10517;SDS011;5307;42.548;22.968;2023-08-07T02:33:50;2.55;;;2.30;;
10517;SDS011;5307;42.548;22.968;2023-08-07T02:36:17;2.72;;;2.00;;
10517;SDS011;5307;42.548;22.968;2023-08-07T02:38:44;2.22;;;2.00;;
10517;SDS011;5307;42.548;22.968;2023-08-07T02:41:10;3.47;;;2.10;;
10517;SDS011;5307;42.548;22.968;2023-08-07T02:43:37;3.70;;;2.17;;
10517;SDS011;5307;42.548;22.968;2023-08-07T02:46:05;2.45;;;2.13;;
10517;SDS011;5307;42.548;22.968;2023-08-07T02:48:32;2.30;;;2.10;;
10517;SDS011;5307;42.548;22.968;2023-08-07T02:50:59;3.22;;;2.05;;
10517;SDS011;5307;42.548;22.968;2023-08-07T02:53:26;2.50;;;2.30;;
10517;SDS011;5307;42.548;22.968;2023-08-07T02:55:52;2.53;;;2.30;;
10517;SDS011;5307;42.548;22.968;2023-08-07T02:58:19;2.28;;;2.08;;
10517;SDS011;5307;42.548;22.968;2023-08-07T03:00:46;2.42;;;2.22;;
10517;SDS011;5307;42.548;22.968;2023-08-07T03:03:14;3.75;;;2.30;;
10517;SDS011;5307;42.548;22.968;2023-08-07T03:05:47;2.72;;;2.45;;
10517;SDS011;5307;42.548;22.968;2023-08-07T03:08:14;2.30;;;2.10;;
10517;SDS011;5307;42.548;22.968;2023-08-07T03:10:41;5.65;;;2.67;;
10517;SDS011;5307;42.548;22.968;2023-08-07T03:13:08;3.20;;;2.60;;
10517;SDS011;5307;42.548;22.968;2023-08-07T03:15:34;3.10;;;2.47;;
10517;SDS011;5307;42.548;22.968;2023-08-07T03:18:01;2.45;;;2.25;;
10517;SDS011;5307;42.548;22.968;2023-08-07T03:20:29;3.38;;;2.33;;
10517;SDS011;5307;42.548;22.968;2023-08-07T03:22:56;3.03;;;2.28;;
10517;SDS011;5307;42.548;22.968;2023-08-07T03:25:23;3.42;;;2.58;;
10517;SDS011;5307;42.548;22.968;2023-08-07T03:27:50;2.88;;;2.50;;
10517;SDS011;5307;42.548;22.968;2023-08-07T03:30:16;3.17;;;2.60;;
10517;SDS011;5307;42.548;22.968;2023-08-07T03:32:43;3.55;;;2.58;;
10517;SDS011;5307;42.548;22.968;2023-08-07T03:35:10;4.40;;;2.90;;
10517;SDS011;5307;42.548;22.968;2023-08-07T03:37:41;3.13;;;2.80;;
10517;SDS011;5307;42.548;22.968;2023-08-07T03:40:08;2.60;;;2.40;;
10517;SDS011;5307;42.548;22.968;2023-08-07T03:42:34;3.85;;;2.60;;
10517;SDS011;5307;42.548;22.968;2023-08-07T03:45:01;2.92;;;2.72;;
10517;SDS011;5307;42.548;22.968;2023-08-07T03:47:34;2.97;;;2.75;;
10517;SDS011;5307;42.548;22.968;2023-08-07T03:50:01;2.63;;;2.42;;
10517;SDS011;5307;42.548;22.968;2023-08-07T03:52:28;4.05;;;2.70;;
10517;SDS011;5307;42.548;22.968;2023-08-07T04:00:45;4.13;;;2.40;;
10517;SDS011;5307;42.548;22.968;2023-08-07T04:03:12;3.45;;;2.55;;
10517;SDS011;5307;42.548;22.968;2023-08-07T04:05:39;2.83;;;2.30;;
10517;SDS011;5307;42.548;22.968;2023-08-07T04:08:05;2.75;;;2.50;;
10517;SDS011;5307;42.548;22.968;2023-08-07T04:10:33;2.53;;;2.33;;
10517;SDS011;5307;42.548;22.968;2023-08-07T04:13:00;2.70;;;2.45;;
10517;SDS011;5307;42.548;22.968;2023-08-07T04:15:28;3.05;;;2.55;;
10517;SDS011;5307;42.548;22.968;2023-08-07T04:17:55;4.03;;;2.90;;
10517;SDS011;5307;42.548;22.968;2023-08-07T04:20:21;5.55;;;2.70;;
10517;SDS011;5307;42.548;22.968;2023-08-07T04:22:48;7.13;;;2.65;;
10517;SDS011;5307;42.548;22.968;2023-08-07T04:25:15;4.40;;;2.65;;
10517;SDS011;5307;42.548;22.968;2023-08-07T04:27:42;4.03;;;2.85;;
10517;SDS011;5307;42.548;22.968;2023-08-07T04:30:09;3.72;;;2.92;;
10517;SDS011;5307;42.548;22.968;2023-08-07T04:32:38;7.43;;;3.40;;
10517;SDS011;5307;42.548;22.968;2023-08-07T04:35:06;6.07;;;2.85;;
10517;SDS011;5307;42.548;22.968;2023-08-07T04:37:33;4.78;;;3.00;;
10517;SDS011;5307;42.548;22.968;2023-08-07T04:40:00;4.75;;;2.80;;
10517;SDS011;5307;42.548;22.968;2023-08-07T04:42:27;4.82;;;2.92;;
10517;SDS011;5307;42.548;22.968;2023-08-07T04:44:54;3.47;;;3.17;;
10517;SDS011;5307;42.548;22.968;2023-08-07T04:47:20;5.65;;;3.35;;
10517;SDS011;5307;42.548;22.968;2023-08-07T04:49:49;4.63;;;3.40;;
10517;SDS011;5307;42.548;22.968;2023-08-07T04:52:15;6.47;;;3.55;;
10517;SDS011;5307;42.548;22.968;2023-08-07T04:54:42;6.00;;;3.90;;
10517;SDS011;5307;42.548;22.968;2023-08-07T04:57:09;5.63;;;3.50;;
10517;SDS011;5307;42.548;22.968;2023-08-07T04:59:36;3.55;;;3.25;;
10517;SDS011;5307;42.548;22.968;2023-08-07T05:02:02;4.65;;;3.38;;
10517;SDS011;5307;42.548;22.968;2023-08-07T05:04:29;5.82;;;3.42;;
10517;SDS011;5307;42.548;22.968;2023-08-07T05:06:58;4.20;;;3.80;;
10517;SDS011;5307;42.548;22.968;2023-08-07T05:09:24;6.28;;;3.50;;
10517;SDS011;5307;42.548;22.968;2023-08-07T05:11:51;8.10;;;3.67;;
10517;SDS011;5307;42.548;22.968;2023-08-07T05:14:18;4.60;;;3.60;;
10517;SDS011;5307;42.548;22.968;2023-08-07T05:16:45;5.35;;;3.28;;
10517;SDS011;5307;42.548;22.968;2023-08-07T05:19:12;3.40;;;3.10;;
10517;SDS011;5307;42.548;22.968;2023-08-07T05:21:39;5.15;;;3.58;;
10517;SDS011;5307;42.548;22.968;2023-08-07T05:24:07;3.58;;;3.28;;
10517;SDS011;5307;42.548;22.968;2023-08-07T05:26:34;4.13;;;3.58;;
10517;SDS011;5307;42.548;22.968;2023-08-07T05:29:01;4.07;;;3.67;;
10517;SDS011;5307;42.548;22.968;2023-08-07T05:31:27;5.50;;;3.45;;
10517;SDS011;5307;42.548;22.968;2023-08-07T05:33:55;4.05;;;3.70;;
10517;SDS011;5307;42.548;22.968;2023-08-07T05:36:22;4.50;;;3.35;;
10517;SDS011;5307;42.548;22.968;2023-08-07T05:38:49;6.35;;;3.78;;
10517;SDS011;5307;42.548;22.968;2023-08-07T05:41:17;3.60;;;3.30;;
10517;SDS011;5307;42.548;22.968;2023-08-07T05:43:45;3.60;;;3.30;;
10517;SDS011;5307;42.548;22.968;2023-08-07T05:46:12;3.40;;;3.10;;
10517;SDS011;5307;42.548;22.968;2023-08-07T05:48:38;3.00;;;2.80;;
10517;SDS011;5307;42.548;22.968;2023-08-07T05:51:05;2.97;;;2.67;;
10517;SDS011;5307;42.548;22.968;2023-08-07T05:53:32;3.33;;;3.03;;
10517;SDS011;5307;42.548;22.968;2023-08-07T05:56:00;3.17;;;2.88;;
10517;SDS011;5307;42.548;22.968;2023-08-07T05:58:28;3.53;;;3.22;;
10517;SDS011;5307;42.548;22.968;2023-08-07T06:00:55;3.53;;;3.03;;
10517;SDS011;5307;42.548;22.968;2023-08-07T06:03:21;3.40;;;3.10;;
10517;SDS011;5307;42.548;22.968;2023-08-07T06:05:48;3.15;;;2.70;;
10517;SDS011;5307;42.548;22.968;2023-08-07T06:08:15;4.22;;;3.42;;
10517;SDS011;5307;42.548;22.968;2023-08-07T06:10:41;4.63;;;4.13;;
10517;SDS011;5307;42.548;22.968;2023-08-07T06:13:08;5.57;;;4.47;;
10517;SDS011;5307;42.548;22.968;2023-08-07T06:15:36;5.10;;;4.10;;
10517;SDS011;5307;42.548;22.968;2023-08-07T06:18:03;8.68;;;4.40;;
10517;SDS011;5307;42.548;22.968;2023-08-07T06:20:30;10.70;;;4.28;;
10517;SDS011;5307;42.548;22.968;2023-08-07T06:22:57;4.00;;;3.35;;
10517;SDS011;5307;42.548;22.968;2023-08-07T06:25:24;3.80;;;3.50;;
10517;SDS011;5307;42.548;22.968;2023-08-07T06:27:50;4.25;;;3.85;;
10517;SDS011;5307;42.548;22.968;2023-08-07T06:30:17;5.70;;;3.63;;
10517;SDS011;5307;42.548;22.968;2023-08-07T06:32:45;4.28;;;2.92;;
10517;SDS011;5307;42.548;22.968;2023-08-07T06:35:12;4.13;;;2.90;;
10517;SDS011;5307;42.548;22.968;2023-08-07T06:37:39;12.85;;;8.07;;
10517;SDS011;5307;42.548;22.968;2023-08-07T06:40:06;3.20;;;2.60;;
10517;SDS011;5307;42.548;22.968;2023-08-07T06:42:34;4.72;;;2.42;;
10517;SDS011;5307;42.548;22.968;2023-08-07T06:45:00;4.40;;;2.90;;
10517;SDS011;5307;42.548;22.968;2023-08-07T06:47:27;5.15;;;1.98;;
10517;SDS011;5307;42.548;22.968;2023-08-07T06:49:56;1.50;;;1.40;;
10517;SDS011;5307;42.548;22.968;2023-08-07T06:52:22;1.60;;;1.25;;
10517;SDS011;5307;42.548;22.968;2023-08-07T06:54:49;1.35;;;1.20;;
10517;SDS011;5307;42.548;22.968;2023-08-07T06:57:16;2.75;;;1.17;;
10517;SDS011;5307;42.548;22.968;2023-08-07T06:59:43;3.08;;;1.20;;
10517;SDS011;5307;42.548;22.968;2023-08-07T07:02:09;1.42;;;1.00;;
10517;SDS011;5307;42.548;22.968;2023-08-07T07:04:36;5.53;;;5.05;;
10517;SDS011;5307;42.548;22.968;2023-08-07T07:07:05;0.90;;;0.90;;
10517;SDS011;5307;42.548;22.968;2023-08-07T07:09:31;1.02;;;0.90;;
10517;SDS011;5307;42.548;22.968;2023-08-07T07:11:58;3.42;;;1.35;;
10517;SDS011;5307;42.548;22.968;2023-08-07T07:14:25;2.15;;;0.90;;
10517;SDS011;5307;42.548;22.968;2023-08-07T07:16:52;3.55;;;1.60;;
10517;SDS011;5307;42.548;22.968;2023-08-07T07:19:18;3.42;;;1.67;;
10517;SDS011;5307;42.548;22.968;2023-08-07T07:21:45;1.30;;;1.20;;
10517;SDS011;5307;42.548;22.968;2023-08-07T07:24:13;1.17;;;1.08;;
10517;SDS011;5307;42.548;22.968;2023-08-07T07:26:40;1.00;;;1.00;;
10517;SDS011;5307;42.548;22.968;2023-08-07T07:29:07;0.82;;;0.82;;
10517;SDS011;5307;42.548;22.968;2023-08-07T07:31:34;1.92;;;1.73;;
10517;SDS011;5307;42.548;22.968;2023-08-07T07:34:00;1.42;;;1.33;;
10517;SDS011;5307;42.548;22.968;2023-08-07T07:36:28;2.00;;;1.75;;
10517;SDS011;5307;42.548;22.968;2023-08-07T07:38:55;3.25;;;1.30;;
10517;SDS011;5307;42.548;22.968;2023-08-07T07:41:23;1.35;;;1.25;;
10517;SDS011;5307;42.548;22.968;2023-08-07T07:43:50;1.90;;;1.40;;
10517;SDS011;5307;42.548;22.968;2023-08-07T07:46:17;2.17;;;1.42;;
10517;SDS011;5307;42.548;22.968;2023-08-07T07:48:43;2.35;;;1.20;;
10517;SDS011;5307;42.548;22.968;2023-08-07T07:51:10;2.58;;;1.38;;
10517;SDS011;5307;42.548;22.968;2023-08-07T07:53:37;3.38;;;1.40;;
10517;SDS011;5307;42.548;22.968;2023-08-07T07:56:03;3.83;;;1.45;;
10517;SDS011;5307;42.548;22.968;2023-08-07T07:58:32;1.27;;;1.27;;
10517;SDS011;5307;42.548;22.968;2023-08-07T08:00:58;1.70;;;1.60;;
10517;SDS011;5307;42.548;22.968;2023-08-07T08:03:26;1.40;;;1.30;;
10517;SDS011;5307;42.548;22.968;2023-08-07T08:05:52;2.95;;;2.30;;
10517;SDS011;5307;42.548;22.968;2023-08-07T08:08:19;4.40;;;1.50;;
10517;SDS011;5307;42.548;22.968;2023-08-07T08:10:46;1.77;;;1.30;;
10517;SDS011;5307;42.548;22.968;2023-08-07T08:13:13;1.70;;;1.48;;
10517;SDS011;5307;42.548;22.968;2023-08-07T08:15:41;1.58;;;1.48;;
10517;SDS011;5307;42.548;22.968;2023-08-07T08:18:08;4.10;;;1.67;;
10517;SDS011;5307;42.548;22.968;2023-08-07T08:20:35;1.67;;;1.58;;
10517;SDS011;5307;42.548;22.968;2023-08-07T08:23:01;1.73;;;1.60;;
10517;SDS011;5307;42.548;22.968;2023-08-07T08:25:29;2.17;;;1.50;;
10517;SDS011;5307;42.548;22.968;2023-08-07T08:27:55;2.72;;;1.70;;
10517;SDS011;5307;42.548;22.968;2023-08-07T08:30:22;1.75;;;1.63;;
10517;SDS011;5307;42.548;22.968;2023-08-07T08:32:51;7.43;;;1.50;;
10517;SDS011;5307;42.548;22.968;2023-08-07T08:35:17;6.38;;;2.10;;
10517;SDS011;5307;42.548;22.968;2023-08-07T08:37:44;2.72;;;1.63;;
10517;SDS011;5307;42.548;22.968;2023-08-07T08:40:11;2.40;;;1.65;;
10517;SDS011;5307;42.548;22.968;2023-08-07T08:42:42;1.63;;;1.52;;
10517;SDS011;5307;42.548;22.968;2023-08-07T08:45:09;4.53;;;1.55;;
10517;SDS011;5307;42.548;22.968;2023-08-07T08:47:39;4.53;;;2.53;;
10517;SDS011;5307;42.548;22.968;2023-08-07T08:50:09;1.85;;;1.70;;
10517;SDS011;5307;42.548;22.968;2023-08-07T08:52:38;2.13;;;1.75;;
10517;SDS011;5307;42.548;22.968;2023-08-07T08:55:07;1.85;;;1.75;;
10517;SDS011;5307;42.548;22.968;2023-08-07T08:57:35;1.92;;;1.50;;
10517;SDS011;5307;42.548;22.968;2023-08-07T09:00:03;2.95;;;1.55;;
10517;SDS011;5307;42.548;22.968;2023-08-07T09:02:40;1.77;;;1.27;;
10517;SDS011;5307;42.548;22.968;2023-08-07T09:05:08;1.58;;;1.48;;
10517;SDS011;5307;42.548;22.968;2023-08-07T09:07:35;1.60;;;1.50;;
10517;SDS011;5307;42.548;22.968;2023-08-07T09:10:03;1.58;;;1.40;;
10517;SDS011;5307;42.548;22.968;2023-08-07T09:12:32;1.65;;;1.55;;
10517;SDS011;5307;42.548;22.968;2023-08-07T09:15:00;2.63;;;1.67;;
10517;SDS011;5307;42.548;22.968;2023-08-07T09:17:30;2.20;;;1.40;;
10517;SDS011;5307;42.548;22.968;2023-08-07T09:19:59;3.75;;;1.33;;
10517;SDS011;5307;42.548;22.968;2023-08-07T09:22:28;3.60;;;1.83;;
10517;SDS011;5307;42.548;22.968;2023-08-07T09:24:54;2.58;;;1.60;;
10517;SDS011;5307;42.548;22.968;2023-08-07T09:27:22;1.45;;;1.35;;
10517;SDS011;5307;42.548;22.968;2023-08-07T09:29:54;1.55;;;1.33;;
10517;SDS011;5307;42.548;22.968;2023-08-07T09:32:21;1.42;;;1.33;;
10517;SDS011;5307;42.548;22.968;2023-08-07T09:34:49;2.13;;;1.58;;
10517;SDS011;5307;42.548;22.968;2023-08-07T09:37:17;1.60;;;1.42;;
10517;SDS011;5307;42.548;22.968;2023-08-07T09:39:45;2.10;;;1.50;;
10517;SDS011;5307;42.548;22.968;2023-08-07T09:42:13;1.08;;;1.00;;
10517;SDS011;5307;42.548;22.968;2023-08-07T09:44:41;1.55;;;1.20;;
10517;SDS011;5307;42.548;22.968;2023-08-07T09:47:11;2.10;;;1.33;;
10517;SDS011;5307;42.548;22.968;2023-08-07T09:49:40;2.50;;;1.17;;
10517;SDS011;5307;42.548;22.968;2023-08-07T09:52:07;1.25;;;1.15;;
10517;SDS011;5307;42.548;22.968;2023-08-07T09:54:35;1.20;;;1.10;;
10517;SDS011;5307;42.548;22.968;2023-08-07T09:57:04;1.25;;;1.15;;
10517;SDS011;5307;42.548;22.968;2023-08-07T09:59:32;1.55;;;1.35;;
10517;SDS011;5307;42.548;22.968;2023-08-07T10:02:00;1.30;;;1.20;;
10517;SDS011;5307;42.548;22.968;2023-08-07T10:04:28;1.30;;;1.20;;
10517;SDS011;5307;42.548;22.968;2023-08-07T10:06:55;1.40;;;1.20;;
10517;SDS011;5307;42.548;22.968;2023-08-07T10:09:23;1.38;;;1.27;;
10517;SDS011;5307;42.548;22.968;2023-08-07T10:11:50;1.60;;;1.30;;
10517;SDS011;5307;42.548;22.968;2023-08-07T10:14:19;3.28;;;1.30;;
10517;SDS011;5307;42.548;22.968;2023-08-07T10:16:46;1.30;;;1.20;;
10517;SDS011;5307;42.548;22.968;2023-08-07T10:19:13;1.38;;;1.27;;
10517;SDS011;5307;42.548;22.968;2023-08-07T10:21:40;2.95;;;1.30;;
10517;SDS011;5307;42.548;22.968;2023-08-07T10:24:08;2.17;;;1.40;;
10517;SDS011;5307;42.548;22.968;2023-08-07T10:26:36;2.47;;;1.20;;
10517;SDS011;5307;42.548;22.968;2023-08-07T10:29:06;1.45;;;1.35;;
10517;SDS011;5307;42.548;22.968;2023-08-07T10:31:39;1.30;;;1.20;;
10517;SDS011;5307;42.548;22.968;2023-08-07T10:34:09;2.50;;;1.40;;
10517;SDS011;5307;42.548;22.968;2023-08-07T10:36:36;1.40;;;1.30;;
10517;SDS011;5307;42.548;22.968;2023-08-07T10:39:06;2.15;;;1.13;;
10517;SDS011;5307;42.548;22.968;2023-08-07T10:41:44;1.30;;;1.17;;
10517;SDS011;5307;42.548;22.968;2023-08-07T10:44:18;1.50;;;1.40;;
10517;SDS011;5307;42.548;22.968;2023-08-07T10:46:52;1.27;;;1.17;;
10517;SDS011;5307;42.548;22.968;2023-08-07T10:52:08;1.30;;;1.20;;
10517;SDS011;5307;42.548;22.968;2023-08-07T10:54:39;3.67;;;1.30;;
10517;SDS011;5307;42.548;22.968;2023-08-07T10:57:09;3.00;;;1.13;;
10517;SDS011;5307;42.548;22.968;2023-08-07T11:02:36;1.42;;;1.33;;
10517;SDS011;5307;42.548;22.968;2023-08-07T11:05:04;1.50;;;1.40;;
10517;SDS011;5307;42.548;22.968;2023-08-07T11:07:32;1.13;;;1.02;;
10517;SDS011;5307;42.548;22.968;2023-08-07T11:10:00;1.38;;;1.27;;
10517;SDS011;5307;42.548;22.968;2023-08-07T11:12:27;2.85;;;1.60;;
10517;SDS011;5307;42.548;22.968;2023-08-07T11:14:54;3.78;;;1.27;;
10517;SDS011;5307;42.548;22.968;2023-08-07T11:17:23;1.65;;;1.35;;
10517;SDS011;5307;42.548;22.968;2023-08-07T11:19:52;2.55;;;1.40;;
10517;SDS011;5307;42.548;22.968;2023-08-07T11:22:19;1.70;;;1.60;;
10517;SDS011;5307;42.548;22.968;2023-08-07T11:24:46;4.72;;;1.30;;
10517;SDS011;5307;42.548;22.968;2023-08-07T11:27:13;1.52;;;1.27;;
10517;SDS011;5307;42.548;22.968;2023-08-07T11:29:40;2.53;;;1.30;;
10517;SDS011;5307;42.548;22.968;2023-08-07T11:32:07;2.20;;;1.60;;
10517;SDS011;5307;42.548;22.968;2023-08-07T11:34:35;2.35;;;1.60;;
10517;SDS011;5307;42.548;22.968;2023-08-07T11:37:03;1.27;;;1.17;;
10517;SDS011;5307;42.548;22.968;2023-08-07T11:39:30;2.10;;;1.25;;
10517;SDS011;5307;42.548;22.968;2023-08-07T11:41:57;2.40;;;1.30;;
10517;SDS011;5307;42.548;22.968;2023-08-07T11:44:24;1.45;;;1.35;;
10517;SDS011;5307;42.548;22.968;2023-08-07T11:46:51;1.48;;;1.38;;
10517;SDS011;5307;42.548;22.968;2023-08-07T11:49:18;1.13;;;1.02;;
10517;SDS011;5307;42.548;22.968;2023-08-07T11:51:45;1.63;;;1.52;;
10517;SDS011;5307;42.548;22.968;2023-08-07T11:54:14;1.90;;;1.40;;
10517;SDS011;5307;42.548;22.968;2023-08-07T11:56:41;1.40;;;1.30;;
10517;SDS011;5307;42.548;22.968;2023-08-07T11:59:09;1.15;;;1.15;;
10517;SDS011;5307;42.548;22.968;2023-08-07T12:01:37;1.30;;;1.20;;
10517;SDS011;5307;42.548;22.968;2023-08-07T12:04:08;3.05;;;1.30;;
10517;SDS011;5307;42.548;22.968;2023-08-07T12:06:36;1.77;;;1.20;;
10517;SDS011;5307;42.548;22.968;2023-08-07T12:09:05;3.13;;;1.25;;
10517;SDS011;5307;42.548;22.968;2023-08-07T12:11:38;4.40;;;1.50;;
10517;SDS011;5307;42.548;22.968;2023-08-07T12:14:05;1.48;;;1.38;;
10517;SDS011;5307;42.548;22.968;2023-08-07T12:16:32;1.50;;;1.40;;
10517;SDS011;5307;42.548;22.968;2023-08-07T12:18:59;1.95;;;1.52;;
10517;SDS011;5307;42.548;22.968;2023-08-07T12:21:27;1.95;;;1.15;;
10517;SDS011;5307;42.548;22.968;2023-08-07T12:23:54;1.92;;;1.52;;
10517;SDS011;5307;42.548;22.968;2023-08-07T12:26:21;5.07;;;1.60;;
10517;SDS011;5307;42.548;22.968;2023-08-07T12:28:50;1.88;;;1.13;;
10517;SDS011;5307;42.548;22.968;2023-08-07T12:31:17;2.38;;;1.30;;
10517;SDS011;5307;42.548;22.968;2023-08-07T12:33:44;3.08;;;1.50;;
10517;SDS011;5307;42.548;22.968;2023-08-07T12:36:11;1.95;;;1.60;;
10517;SDS011;5307;42.548;22.968;2023-08-07T12:38:39;1.40;;;1.30;;
10517;SDS011;5307;42.548;22.968;2023-08-07T12:41:06;1.60;;;1.50;;
10517;SDS011;5307;42.548;22.968;2023-08-07T12:43:33;1.70;;;1.60;;
10517;SDS011;5307;42.548;22.968;2023-08-07T12:46:01;4.20;;;1.88;;
10517;SDS011;5307;42.548;22.968;2023-08-07T12:48:28;3.13;;;2.33;;
10517;SDS011;5307;42.548;22.968;2023-08-07T12:50:55;3.97;;;1.67;;
10517;SDS011;5307;42.548;22.968;2023-08-07T12:53:22;2.33;;;1.95;;
10517;SDS011;5307;42.548;22.968;2023-08-07T12:55:48;1.85;;;1.70;;
10517;SDS011;5307;42.548;22.968;2023-08-07T12:58:15;1.90;;;1.67;;
10517;SDS011;5307;42.548;22.968;2023-08-07T13:00:43;1.95;;;1.80;;
10517;SDS011;5307;42.548;22.968;2023-08-07T13:03:12;2.75;;;1.80;;
10517;SDS011;5307;42.548;22.968;2023-08-07T13:05:38;1.85;;;1.75;;
10517;SDS011;5307;42.548;22.968;2023-08-07T13:08:05;3.17;;;1.75;;
10517;SDS011;5307;42.548;22.968;2023-08-07T13:10:32;2.42;;;1.90;;
10517;SDS011;5307;42.548;22.968;2023-08-07T13:12:59;4.82;;;2.03;;
10517;SDS011;5307;42.548;22.968;2023-08-07T13:15:26;3.85;;;2.08;;
10517;SDS011;5307;42.548;22.968;2023-08-07T13:17:54;1.77;;;1.67;;
10517;SDS011;5307;42.548;22.968;2023-08-07T13:20:22;3.40;;;1.80;;
10517;SDS011;5307;42.548;22.968;2023-08-07T13:22:51;2.15;;;1.92;;
10517;SDS011;5307;42.548;22.968;2023-08-07T13:25:17;1.55;;;1.45;;
10517;SDS011;5307;42.548;22.968;2023-08-07T13:27:44;1.83;;;1.73;;
10517;SDS011;5307;42.548;22.968;2023-08-07T13:30:11;1.52;;;1.42;;
10517;SDS011;5307;42.548;22.968;2023-08-07T13:32:38;3.60;;;1.90;;
10517;SDS011;5307;42.548;22.968;2023-08-07T13:35:05;1.88;;;1.73;;
10517;SDS011;5307;42.548;22.968;2023-08-07T13:37:35;2.00;;;1.77;;
10517;SDS011;5307;42.548;22.968;2023-08-07T13:40:04;2.35;;;2.00;;
10517;SDS011;5307;42.548;22.968;2023-08-07T13:42:32;5.18;;;2.00;;
10517;SDS011;5307;42.548;22.968;2023-08-07T13:44:59;4.28;;;1.70;;
10517;SDS011;5307;42.548;22.968;2023-08-07T13:50:43;3.50;;;1.70;;
10517;SDS011;5307;42.548;22.968;2023-08-07T13:53:11;2.08;;;1.90;;
10517;SDS011;5307;42.548;22.968;2023-08-07T13:55:37;2.28;;;1.70;;
10517;SDS011;5307;42.548;22.968;2023-08-07T13:58:05;3.30;;;1.45;;
10517;SDS011;5307;42.548;22.968;2023-08-07T14:00:32;2.38;;;1.50;;
10517;SDS011;5307;42.548;22.968;2023-08-07T14:02:59;1.90;;;1.67;;
10517;SDS011;5307;42.548;22.968;2023-08-07T14:05:26;4.68;;;1.83;;
10517;SDS011;5307;42.548;22.968;2023-08-07T14:07:53;1.85;;;1.48;;
10517;SDS011;5307;42.548;22.968;2023-08-07T14:10:23;1.70;;;1.60;;
10517;SDS011;5307;42.548;22.968;2023-08-07T14:12:50;1.70;;;1.60;;
10517;SDS011;5307;42.548;22.968;2023-08-07T14:15:17;4.65;;;1.52;;
10517;SDS011;5307;42.548;22.968;2023-08-07T14:17:45;2.10;;;1.90;;
10517;SDS011;5307;42.548;22.968;2023-08-07T14:20:12;2.45;;;1.77;;
10517;SDS011;5307;42.548;22.968;2023-08-07T14:22:38;3.28;;;1.73;;
10517;SDS011;5307;42.548;22.968;2023-08-07T14:25:06;2.25;;;1.70;;
10517;SDS011;5307;42.548;22.968;2023-08-07T14:27:35;2.17;;;1.83;;
10517;SDS011;5307;42.548;22.968;2023-08-07T14:30:02;2.72;;;2.00;;
10517;SDS011;5307;42.548;22.968;2023-08-07T14:32:29;1.92;;;1.50;;
10517;SDS011;5307;42.548;22.968;2023-08-07T14:34:55;2.40;;;2.20;;
10517;SDS011;5307;42.548;22.968;2023-08-07T14:37:22;2.30;;;1.95;;
10517;SDS011;5307;42.548;22.968;2023-08-07T14:39:49;3.80;;;1.90;;
10517;SDS011;5307;42.548;22.968;2023-08-07T14:42:16;2.20;;;2.00;;
10517;SDS011;5307;42.548;22.968;2023-08-07T14:44:44;4.20;;;2.28;;
10517;SDS011;5307;42.548;22.968;2023-08-07T14:47:11;12.70;;;2.13;;
10517;SDS011;5307;42.548;22.968;2023-08-07T14:49:38;2.78;;;2.00;;
10517;SDS011;5307;42.548;22.968;2023-08-07T14:52:05;2.42;;;1.90;;
10517;SDS011;5307;42.548;22.968;2023-08-07T14:54:33;2.42;;;1.88;;
10517;SDS011;5307;42.548;22.968;2023-08-07T14:57:00;2.58;;;1.63;;
10517;SDS011;5307;42.548;22.968;2023-08-07T14:59:27;7.18;;;1.95;;
10517;SDS011;5307;42.548;22.968;2023-08-07T15:01:55;2.47;;;1.48;;
10517;SDS011;5307;42.548;22.968;2023-08-07T15:04:31;1.52;;;1.42;;